Beaver Creek, Colorado
Current Conditions -  °F | °C
As of 5:50 PM on Saturday 22 Nov 2014 (Local Time) from KEGE Reporting Station
Light Snow Light Snow  
Wind Chill: 37°   Ceiling: 2000
Heat Index: 37°   Visibility: 5mi
Dew Point: 30°   Wind: 0mph
Humidity: 75%   Direction: NA
Pressure: 29.87"   Gusts: NA
Location:  39.6°N, 106.52°W
Report Text: KEGE 222350Z 00000KT 5SM -SN BR BKN020 OVC042 03/M01 A2987
Loading
Personal Weather Stations






























Interactive Weather Map New forecast layout! Learn more

10-Day Weather Forecast

Advertisements
Track Severe Weather on mobile